Terminal Aerodrome Forecast
Issued by NWS

Home | Current Version | Previous Version | Text Only | Print | Product List | Glossary On
Versions: 1 2 3 4 5 6 7 8 9 10 11 12 13 14 15 16 17
000
FTUS42 KFFC 251120
TAFFTY
TAF
KFTY 251120Z 2512/2612 17003KT 5SM -SHRA SCT025 BKN045
      TEMPO 2512/2514 VRB15G30KT 2SM TSRA BR BKN015CB
     FM251500 21008G13KT P6SM VCSH BKN025 BKN050
     FM251800 22010G16KT P6SM VCSH SCT012 BKN050
      TEMPO 2520/2524 2SM TSRA BKN012CB
     FM260000 23009G15KT P6SM BKN050
     FM260600 25010G16KT P6SM SCT045=

USA.gov is the U.S. government's official web portal to all federal, state and local government web resources and services.